createdAt,value
2023-02-04T00:00:29.489Z,1019.2
2023-02-04T00:01:34.623Z,1019.2
2023-02-04T00:02:38.461Z,1019.2
2023-02-04T00:03:41.751Z,1019.2
2023-02-04T00:04:44.589Z,1019.2
2023-02-04T00:05:48.160Z,1019.3
2023-02-04T00:06:50.973Z,1019.3
2023-02-04T00:07:54.789Z,1019.4
2023-02-04T00:08:57.852Z,1019.5
2023-02-04T00:10:00.689Z,1019.5
2023-02-04T00:11:04.359Z,1019.5
2023-02-04T00:12:07.070Z,1019.5
2023-02-04T00:13:10.115Z,1019.5
2023-02-04T00:14:14.282Z,1019.5
2023-02-04T00:15:17.358Z,1019.6
2023-02-04T00:16:20.499Z,1019.7
2023-02-04T00:17:24.249Z,1019.8
2023-02-04T00:18:26.698Z,1019.8
2023-02-04T00:19:29.140Z,1019.8
2023-02-04T00:20:33.206Z,1019.7
2023-02-04T00:21:36.370Z,1019.8
2023-02-04T00:22:39.383Z,1019.7
2023-02-04T00:23:42.446Z,1019.8
2023-02-04T00:24:45.539Z,1019.8
2023-02-04T00:25:48.565Z,1019.9
2023-02-04T00:26:51.264Z,1020
2023-02-04T00:27:54.529Z,1020
2023-02-04T00:28:57.928Z,1020
2023-02-04T00:30:02.043Z,1020.1
2023-02-04T00:31:05.260Z,1020
2023-02-04T00:32:09.414Z,1020.1
2023-02-04T00:33:12.835Z,1020.1
2023-02-04T00:34:15.923Z,1020.1
2023-02-04T00:35:19.456Z,1020.1
2023-02-04T00:36:21.879Z,1020.1
2023-02-04T00:37:25.228Z,1020.2
2023-02-04T00:38:27.949Z,1020.2
2023-02-04T00:39:31.386Z,1020.2
2023-02-04T00:40:34.474Z,1020.2
2023-02-04T00:41:37.539Z,1020.3
2023-02-04T00:42:40.874Z,1020.3
2023-02-04T00:43:44.292Z,1020.4
2023-02-04T00:44:47.412Z,1020.4
2023-02-04T00:45:51.416Z,1020.4
2023-02-04T00:46:54.563Z,1020.4
2023-02-04T00:47:58.566Z,1020.4
2023-02-04T00:49:02.714Z,1020.4
2023-02-04T00:50:05.989Z,1020.4
2023-02-04T00:51:10.157Z,1020.5
2023-02-04T00:52:12.857Z,1020.5
2023-02-04T00:53:16.588Z,1020.5
2023-02-04T00:54:19.948Z,1020.5
2023-02-04T00:55:23.953Z,1020.5
2023-02-04T00:56:27.309Z,1020.5
2023-02-04T00:57:30.601Z,1020.6
2023-02-04T00:58:34.317Z,1020.6
2023-02-04T00:59:38.340Z,1020.6
2023-02-04T01:00:41.512Z,1020.6
2023-02-04T01:01:45.897Z,1020.6
2023-02-04T01:02:48.989Z,1020.6
2023-02-04T01:03:52.669Z,1020.5
2023-02-04T01:04:56.680Z,1020.6
2023-02-04T01:06:00.457Z,1020.6
2023-02-04T01:07:03.657Z,1020.6
2023-02-04T01:08:06.578Z,1020.6
2023-02-04T01:09:09.899Z,1020.7
2023-02-04T01:10:13.056Z,1020.6
2023-02-04T01:11:16.405Z,1020.7
2023-02-04T01:12:19.513Z,1020.7
2023-02-04T01:13:22.693Z,1020.8
2023-02-04T01:14:25.583Z,1020.8
2023-02-04T01:15:28.308Z,1020.8
2023-02-04T01:16:31.516Z,1020.9
2023-02-04T01:17:36.106Z,1020.9
2023-02-04T01:18:39.939Z,1021
2023-02-04T01:19:42.996Z,1021
2023-02-04T01:20:46.125Z,1021.1
2023-02-04T01:21:49.399Z,1021.1
2023-02-04T01:22:52.774Z,1021.1
2023-02-04T01:23:55.944Z,1021.1
2023-02-04T01:24:59.609Z,1021.2
2023-02-04T01:26:03.329Z,1021.1
2023-02-04T01:27:05.761Z,1021.2
2023-02-04T01:28:09.357Z,1021.2
2023-02-04T01:29:12.712Z,1021.2
2023-02-04T01:30:16.125Z,1021.2
2023-02-04T01:31:19.732Z,1021.2
2023-02-04T01:32:23.754Z,1021.3
2023-02-04T01:33:27.984Z,1021.3
2023-02-04T01:34:31.347Z,1021.4
2023-02-04T01:35:34.229Z,1021.4
2023-02-04T01:36:37.540Z,1021.4
2023-02-04T01:37:41.296Z,1021.4
2023-02-04T01:38:44.691Z,1021.5
2023-02-04T01:39:47.806Z,1021.5
2023-02-04T01:40:51.131Z,1021.5
2023-02-04T01:41:54.104Z,1021.5
2023-02-04T01:42:57.725Z,1021.5
2023-02-04T01:44:00.711Z,1021.6
2023-02-04T01:45:03.991Z,1021.6
2023-02-04T01:46:06.949Z,1021.6
2023-02-04T01:47:10.216Z,1021.7
2023-02-04T01:48:13.628Z,1021.7
2023-02-04T01:49:17.457Z,1021.7
2023-02-04T01:50:20.470Z,1021.7
2023-02-04T01:51:23.840Z,1021.8
2023-02-04T01:52:26.926Z,1021.8
2023-02-04T01:53:29.915Z,1021.8
2023-02-04T01:54:33.198Z,1021.8
2023-02-04T01:55:36.287Z,1021.9
2023-02-04T01:56:39.451Z,1021.9
2023-02-04T01:57:42.706Z,1021.9
2023-02-04T01:58:45.718Z,1021.9
2023-02-04T01:59:49.080Z,1021.9
2023-02-04T02:00:52.334Z,1022
2023-02-04T02:01:55.731Z,1022
2023-02-04T02:02:59.450Z,1022
2023-02-04T02:04:02.414Z,1022
2023-02-04T02:05:06.537Z,1022.1
2023-02-04T02:06:09.265Z,1022.1
2023-02-04T02:07:11.979Z,1022.1
2023-02-04T02:08:15.232Z,1022.2
2023-02-04T02:09:18.295Z,1022.1
2023-02-04T02:10:21.459Z,1022.2
2023-02-04T02:11:25.167Z,1022.2
2023-02-04T02:12:28.517Z,1022.3
2023-02-04T02:13:32.027Z,1022.3
2023-02-04T02:14:35.714Z,1022.3
2023-02-04T02:15:38.519Z,1022.3
2023-02-04T02:16:42.684Z,1022.4
2023-02-04T02:17:46.662Z,1022.4
2023-02-04T02:18:48.820Z,1022.4
2023-02-04T02:19:52.515Z,1022.4
2023-02-04T02:20:56.410Z,1022.5
2023-02-04T02:21:59.406Z,1022.5
2023-02-04T02:23:03.153Z,1022.5
2023-02-04T02:24:06.019Z,1022.5
2023-02-04T02:25:09.126Z,1022.5
2023-02-04T02:26:11.842Z,1022.5
2023-02-04T02:27:15.210Z,1022.6
2023-02-04T02:28:18.714Z,1022.6
2023-02-04T02:29:21.865Z,1022.6
2023-02-04T02:30:25.190Z,1022.6
2023-02-04T02:31:28.811Z,1022.6
2023-02-04T02:32:32.311Z,1022.7
2023-02-04T02:33:35.461Z,1022.7
2023-02-04T02:34:38.811Z,1022.7
2023-02-04T02:35:41.965Z,1022.8
2023-02-04T02:36:46.085Z,1022.8
2023-02-04T02:37:49.351Z,1022.8
2023-02-04T02:38:53.091Z,1022.8
2023-02-04T02:39:56.502Z,1022.8
2023-02-04T02:40:59.300Z,1022.9
2023-02-04T02:42:02.921Z,1022.9
2023-02-04T02:43:05.808Z,1022.9
2023-02-04T02:44:08.235Z,1022.9
2023-02-04T02:45:11.565Z,1022.9
2023-02-04T02:46:15.230Z,1022.9
2023-02-04T02:47:18.568Z,1023
2023-02-04T02:48:21.642Z,1023
2023-02-04T02:49:24.977Z,1023
2023-02-04T02:50:28.506Z,1023
2023-02-04T02:51:34.190Z,1023
2023-02-04T02:52:38.259Z,1023.1
2023-02-04T02:53:41.778Z,1023.1
2023-02-04T02:54:44.761Z,1023.1
2023-02-04T02:55:46.908Z,1023.1
2023-02-04T02:56:50.661Z,1023.2
2023-02-04T02:57:54.024Z,1023.2
2023-02-04T02:58:57.177Z,1023.2
2023-02-04T03:00:00.568Z,1023.2
2023-02-04T03:01:03.777Z,1023.2
2023-02-04T03:02:07.816Z,1023.2
2023-02-04T03:03:10.770Z,1023.2
2023-02-04T03:04:13.562Z,1023.2
2023-02-04T03:05:16.345Z,1023.2
2023-02-04T03:06:19.201Z,1023.2
2023-02-04T03:07:22.327Z,1023.3
2023-02-04T03:08:26.502Z,1023.3
2023-02-04T03:09:29.691Z,1023.3
2023-02-04T03:10:33.542Z,1023.3
2023-02-04T03:11:37.335Z,1023.4
2023-02-04T03:12:40.622Z,1023.4
2023-02-04T03:13:43.399Z,1023.4
2023-02-04T03:14:46.837Z,1023.4
2023-02-04T03:15:50.105Z,1023.5
2023-02-04T03:16:53.829Z,1023.5
2023-02-04T03:17:57.306Z,1023.5
2023-02-04T03:19:00.515Z,1023.6
2023-02-04T03:20:03.532Z,1023.6
2023-02-04T03:21:06.648Z,1023.6
2023-02-04T03:22:10.039Z,1023.7
2023-02-04T03:23:13.606Z,1023.6
2023-02-04T03:24:17.723Z,1023.7
2023-02-04T03:25:20.720Z,1023.7
2023-02-04T03:26:24.235Z,1023.7
2023-02-04T03:27:27.327Z,1023.7
2023-02-04T03:28:31.325Z,1023.7
2023-02-04T03:29:34.027Z,1023.8
2023-02-04T03:30:36.738Z,1023.8
2023-02-04T03:31:40.483Z,1023.8
2023-02-04T03:32:44.397Z,1023.9
2023-02-04T03:33:47.461Z,1023.9
2023-02-04T03:34:51.157Z,1023.9
2023-02-04T03:35:54.595Z,1024
2023-02-04T03:36:57.846Z,1024
2023-02-04T03:38:01.557Z,1024.1
2023-02-04T03:39:04.881Z,1024.1
2023-02-04T03:40:09.014Z,1024.1
2023-02-04T03:41:11.525Z,1024.1
2023-02-04T03:42:14.218Z,1024.2
2023-02-04T03:43:17.011Z,1024.2
2023-02-04T03:44:20.738Z,1024.2
2023-02-04T03:45:25.022Z,1024.2
2023-02-04T03:46:47.905Z,1024.3
2023-02-04T03:47:51.342Z,1024.3
2023-02-04T03:48:54.063Z,1024.3
2023-02-04T03:49:57.065Z,1024.3
2023-02-04T03:51:00.807Z,1024.4
2023-02-04T03:52:04.008Z,1024.4
2023-02-04T03:53:06.264Z,1024.5
2023-02-04T03:54:09.968Z,1024.5
2023-02-04T03:55:14.221Z,1024.5
2023-02-04T03:56:17.681Z,1024.5
2023-02-04T03:57:21.045Z,1024.5
2023-02-04T03:58:23.860Z,1024.5
2023-02-04T03:59:27.320Z,1024.5
2023-02-04T04:00:31.058Z,1024.5
2023-02-04T04:01:36.239Z,1024.5
2023-02-04T04:02:39.357Z,1024.5
2023-02-04T04:03:42.107Z,1024.5
2023-02-04T04:04:45.162Z,1024.5
2023-02-04T04:05:48.256Z,1024.5
2023-02-04T04:06:51.023Z,1024.5
2023-02-04T04:07:54.096Z,1024.6
2023-02-04T04:08:56.925Z,1024.5
2023-02-04T04:10:00.125Z,1024.6
2023-02-04T04:11:04.320Z,1024.6
2023-02-04T04:12:07.974Z,1024.6
2023-02-04T04:13:11.331Z,1024.6
2023-02-04T04:14:14.398Z,1024.7
2023-02-04T04:15:17.933Z,1024.7
2023-02-04T04:16:21.288Z,1024.7
2023-02-04T04:17:25.088Z,1024.8
2023-02-04T04:18:28.182Z,1024.8
2023-02-04T04:19:31.726Z,1024.8
2023-02-04T04:20:35.506Z,1024.8
2023-02-04T04:21:39.525Z,1024.8
2023-02-04T04:22:42.576Z,1024.8
2023-02-04T04:23:46.024Z,1024.9
2023-02-04T04:24:49.410Z,1024.9
2023-02-04T04:25:52.532Z,1024.9
2023-02-04T04:26:56.640Z,1025
2023-02-04T04:27:59.823Z,1025
2023-02-04T04:29:03.295Z,1025.1
2023-02-04T04:30:06.384Z,1025.1
2023-02-04T04:31:09.757Z,1025.2
2023-02-04T04:32:13.827Z,1025.2
2023-02-04T04:33:16.899Z,1025.3
2023-02-04T04:34:20.270Z,1025.3
2023-02-04T04:35:23.329Z,1025.3
2023-02-04T04:36:26.687Z,1025.4
2023-02-04T04:37:29.691Z,1025.4
2023-02-04T04:38:33.026Z,1025.4
2023-02-04T04:39:35.748Z,1025.5
2023-02-04T04:40:39.017Z,1025.5
2023-02-04T04:41:42.836Z,1025.6
2023-02-04T04:42:46.991Z,1025.6
2023-02-04T04:43:50.039Z,1025.6
2023-02-04T04:44:52.856Z,1025.7
2023-02-04T04:45:56.498Z,1025.7
2023-02-04T04:46:58.989Z,1025.7
2023-02-04T04:48:02.547Z,1025.8
2023-02-04T04:49:05.879Z,1025.8
2023-02-04T04:50:08.312Z,1025.8
2023-02-04T04:51:11.042Z,1025.9
2023-02-04T04:52:14.667Z,1025.9
2023-02-04T04:53:17.201Z,1025.9
2023-02-04T04:54:20.017Z,1026
2023-02-04T04:55:22.889Z,1026
2023-02-04T04:56:25.754Z,1026
2023-02-04T04:57:29.521Z,1026.1
2023-02-04T04:58:33.696Z,1026.1
2023-02-04T04:59:36.873Z,1026.1
2023-02-04T05:00:40.326Z,1026.1
2023-02-04T05:01:43.660Z,1026.2
2023-02-04T05:02:47.012Z,1026.2
2023-02-04T05:03:50.093Z,1026.2
2023-02-04T05:04:53.218Z,1026.3
2023-02-04T05:05:56.434Z,1026.3
2023-02-04T05:06:59.867Z,1026.3
2023-02-04T05:08:03.153Z,1026.3
2023-02-04T05:09:06.330Z,1026.4
2023-02-04T05:10:09.840Z,1026.4
2023-02-04T05:11:13.037Z,1026.3
2023-02-04T05:12:17.018Z,1026.4
2023-02-04T05:13:20.149Z,1026.4
2023-02-04T05:14:24.230Z,1026.3
2023-02-04T05:15:27.305Z,1026.3
2023-02-04T05:16:30.861Z,1026.3
2023-02-04T05:17:34.214Z,1026.3
2023-02-04T05:18:36.930Z,1026.3
2023-02-04T05:19:40.557Z,1026.3
2023-02-04T05:20:44.262Z,1026.3
2023-02-04T05:21:47.553Z,1026.3
2023-02-04T05:22:50.626Z,1026.4
2023-02-04T05:23:53.397Z,1026.4
2023-02-04T05:24:56.554Z,1026.4
2023-02-04T05:25:59.816Z,1026.4
2023-02-04T05:27:03.825Z,1026.3
2023-02-04T05:28:07.610Z,1026.3
2023-02-04T05:29:11.352Z,1026.3
2023-02-04T05:30:15.529Z,1026.2
2023-02-04T05:31:18.807Z,1026.2
2023-02-04T05:32:22.943Z,1026.2
2023-02-04T05:33:26.112Z,1026.2
2023-02-04T05:34:29.585Z,1026.2
2023-02-04T05:35:32.966Z,1026.2
2023-02-04T05:36:35.476Z,1026.3
2023-02-04T05:37:38.845Z,1026.3
2023-02-04T05:38:42.470Z,1026.3
2023-02-04T05:39:45.267Z,1026.2
2023-02-04T05:40:48.259Z,1026.2
2023-02-04T05:41:51.953Z,1026.2
2023-02-04T05:42:55.114Z,1026.2
2023-02-04T05:43:57.541Z,1026.3
2023-02-04T05:45:01.194Z,1026.3
2023-02-04T05:46:05.539Z,1026.3
2023-02-04T05:47:08.965Z,1026.3
2023-02-04T05:48:12.766Z,1026.4
2023-02-04T05:49:15.796Z,1026.4
2023-02-04T05:50:19.509Z,1026.4
2023-02-04T05:51:22.481Z,1026.5
2023-02-04T05:52:25.363Z,1026.5
2023-02-04T05:53:29.430Z,1026.5
2023-02-04T05:54:32.495Z,1026.5
2023-02-04T05:55:35.662Z,1026.6
2023-02-04T05:56:39.164Z,1026.5
2023-02-04T05:57:42.294Z,1026.5
2023-02-04T05:58:45.149Z,1026.5
2023-02-04T05:59:48.204Z,1026.5
2023-02-04T06:00:50.861Z,1026.6
2023-02-04T06:01:55.017Z,1026.6
2023-02-04T06:02:58.153Z,1026.6
2023-02-04T06:04:01.614Z,1026.7
2023-02-04T06:05:04.862Z,1026.7
2023-02-04T06:06:08.229Z,1026.8
2023-02-04T06:07:11.865Z,1026.8
2023-02-04T06:08:14.840Z,1026.8
2023-02-04T06:09:17.652Z,1026.8
2023-02-04T06:10:20.750Z,1026.8
2023-02-04T06:11:23.800Z,1026.9
2023-02-04T06:12:26.672Z,1026.9
2023-02-04T06:13:29.195Z,1026.9
2023-02-04T06:14:32.320Z,1027
2023-02-04T06:15:35.417Z,1027
2023-02-04T06:16:38.571Z,1027
2023-02-04T06:17:42.783Z,1027
2023-02-04T06:18:46.542Z,1027
2023-02-04T06:19:49.983Z,1027
2023-02-04T06:20:53.748Z,1027.1
2023-02-04T06:21:57.102Z,1027.1
2023-02-04T06:22:59.940Z,1027.1
2023-02-04T06:24:05.667Z,1027.1
2023-02-04T06:25:08.780Z,1027.1
2023-02-04T06:26:12.100Z,1027.1
2023-02-04T06:27:15.243Z,1027.2
2023-02-04T06:28:18.733Z,1027.2
2023-02-04T06:29:22.633Z,1027.2
2023-02-04T06:30:25.621Z,1027.2
2023-02-04T06:31:29.870Z,1027.2
2023-02-04T06:32:34.005Z,1027.2
2023-02-04T06:33:37.828Z,1027.3
2023-02-04T06:34:40.809Z,1027.4
2023-02-04T06:35:44.789Z,1027.4
2023-02-04T06:36:48.503Z,1027.5
2023-02-04T06:37:51.777Z,1027.5
2023-02-04T06:38:55.105Z,1027.5
2023-02-04T06:39:57.977Z,1027.5
2023-02-04T06:41:00.814Z,1027.5
2023-02-04T06:42:04.030Z,1027.6
2023-02-04T06:43:07.383Z,1027.6
2023-02-04T06:44:11.102Z,1027.6
2023-02-04T06:45:14.732Z,1027.6
2023-02-04T06:46:17.951Z,1027.7
2023-02-04T06:47:21.053Z,1027.7
2023-02-04T06:48:24.204Z,1027.7
2023-02-04T06:49:28.370Z,1027.7
2023-02-04T06:50:32.153Z,1027.7
2023-02-04T06:51:36.540Z,1027.7
2023-02-04T06:52:39.694Z,1027.8
2023-02-04T06:53:43.292Z,1027.8
2023-02-04T06:54:45.870Z,1027.8
2023-02-04T06:55:49.596Z,1027.8
2023-02-04T06:56:52.383Z,1027.8
2023-02-04T06:57:55.725Z,1027.8
2023-02-04T06:58:59.185Z,1027.8
2023-02-04T07:00:05.835Z,1027.9
2023-02-04T07:01:09.072Z,1027.9
2023-02-04T07:02:12.633Z,1027.9
2023-02-04T07:03:15.456Z,1027.9
2023-02-04T07:04:18.661Z,1027.9
2023-02-04T07:05:22.797Z,1027.9
2023-02-04T07:06:26.066Z,1028
2023-02-04T07:07:29.498Z,1028
2023-02-04T07:08:32.838Z,1028.1
2023-02-04T07:09:36.037Z,1028.1
2023-02-04T07:10:39.189Z,1028.1
2023-02-04T07:11:41.905Z,1028.1
2023-02-04T07:12:44.915Z,1028.2
2023-02-04T07:13:47.900Z,1028.2
2023-02-04T07:14:50.674Z,1028.2
2023-02-04T07:15:53.876Z,1028.3
2023-02-04T07:16:57.102Z,1028.3
2023-02-04T07:17:59.607Z,1028.3
2023-02-04T07:19:03.492Z,1028.3
2023-02-04T07:20:07.182Z,1028.4
2023-02-04T07:21:11.007Z,1028.4
2023-02-04T07:22:13.853Z,1028.4
2023-02-04T07:23:17.273Z,1028.4
2023-02-04T07:24:21.340Z,1028.4
2023-02-04T07:25:24.807Z,1028.4
2023-02-04T07:26:27.690Z,1028.5
2023-02-04T07:27:30.767Z,1028.5
2023-02-04T07:28:33.639Z,1028.5
2023-02-04T07:29:36.713Z,1028.5
2023-02-04T07:30:40.007Z,1028.5
2023-02-04T07:31:43.656Z,1028.5
2023-02-04T07:32:48.139Z,1028.5
2023-02-04T07:33:51.298Z,1028.5
2023-02-04T07:34:54.288Z,1028.5
2023-02-04T07:35:57.420Z,1028.5
2023-02-04T07:37:01.674Z,1028.6
2023-02-04T07:38:05.315Z,1028.5
2023-02-04T07:39:08.758Z,1028.5
2023-02-04T07:40:12.747Z,1028.5
2023-02-04T07:41:15.592Z,1028.5
2023-02-04T07:42:19.572Z,1028.5
2023-02-04T07:43:22.821Z,1028.5
2023-02-04T07:44:26.103Z,1028.5
2023-02-04T07:45:29.274Z,1028.6
2023-02-04T07:46:32.821Z,1028.5
2023-02-04T07:47:36.658Z,1028.6
2023-02-04T07:48:39.937Z,1028.6
2023-02-04T07:49:43.039Z,1028.6
2023-02-04T07:50:46.037Z,1028.7
2023-02-04T07:51:49.073Z,1028.7
2023-02-04T07:52:53.264Z,1028.7
2023-02-04T07:53:57.069Z,1028.7
2023-02-04T07:55:00.567Z,1028.7
2023-02-04T07:56:03.592Z,1028.7
2023-02-04T07:57:07.386Z,1028.7
2023-02-04T07:58:10.404Z,1028.8
2023-02-04T07:59:13.429Z,1028.8
2023-02-04T08:00:16.591Z,1028.8
2023-02-04T08:01:19.811Z,1028.8
2023-02-04T08:02:23.249Z,1028.8
2023-02-04T08:03:26.933Z,1028.9
2023-02-04T08:04:30.008Z,1028.9
2023-02-04T08:05:32.782Z,1028.9
2023-02-04T08:06:35.216Z,1028.9
2023-02-04T08:07:38.633Z,1028.9
2023-02-04T08:08:42.676Z,1028.9
2023-02-04T08:09:45.447Z,1028.9
2023-02-04T08:10:49.174Z,1029
2023-02-04T08:11:52.253Z,1029
2023-02-04T08:12:55.990Z,1029
2023-02-04T08:13:58.985Z,1029
2023-02-04T08:15:02.357Z,1029
2023-02-04T08:16:05.678Z,1029.1
2023-02-04T08:17:09.376Z,1029.1
2023-02-04T08:18:12.128Z,1029.1
2023-02-04T08:19:15.308Z,1029.1
2023-02-04T08:20:18.631Z,1029.1
2023-02-04T08:21:22.414Z,1029.1
2023-02-04T08:22:25.775Z,1029.1
2023-02-04T08:23:28.897Z,1029.2
2023-02-04T08:24:33.076Z,1029.2
2023-02-04T08:25:36.164Z,1029.2
2023-02-04T08:26:39.300Z,1029.2
2023-02-04T08:27:42.385Z,1029.2
2023-02-04T08:28:45.413Z,1029.2
2023-02-04T08:29:48.881Z,1029.2
2023-02-04T08:30:52.415Z,1029.2
2023-02-04T08:31:55.579Z,1029.2
2023-02-04T08:32:59.051Z,1029.2
2023-02-04T08:34:02.430Z,1029.3
2023-02-04T08:35:07.086Z,1029.3
2023-02-04T08:36:10.247Z,1029.3
2023-02-04T08:37:13.046Z,1029.3
2023-02-04T08:38:16.217Z,1029.3
2023-02-04T08:39:21.308Z,1029.3
2023-02-04T08:40:25.446Z,1029.3
2023-02-04T08:41:29.141Z,1029.3
2023-02-04T08:42:32.652Z,1029.3
2023-02-04T08:43:35.651Z,1029.4
2023-02-04T08:44:38.831Z,1029.3
2023-02-04T08:45:41.855Z,1029.4
2023-02-04T08:46:45.359Z,1029.3
2023-02-04T08:47:49.349Z,1029.3
2023-02-04T08:48:52.686Z,1029.4
2023-02-04T08:49:56.052Z,1029.4
2023-02-04T08:50:58.605Z,1029.4
2023-02-04T08:52:01.597Z,1029.4
2023-02-04T08:53:04.608Z,1029.4
2023-02-04T08:54:07.509Z,1029.4
2023-02-04T08:55:11.174Z,1029.3
2023-02-04T08:56:15.329Z,1029.4
2023-02-04T08:57:18.770Z,1029.4
2023-02-04T08:58:22.129Z,1029.3
2023-02-04T08:59:25.323Z,1029.3
2023-02-04T09:00:28.665Z,1029.4
2023-02-04T09:01:32.195Z,1029.3
2023-02-04T09:02:35.730Z,1029.3
2023-02-04T09:03:38.818Z,1029.4
2023-02-04T09:04:41.805Z,1029.4
2023-02-04T09:05:45.316Z,1029.4
2023-02-04T09:06:49.010Z,1029.5
2023-02-04T09:07:52.484Z,1029.4
2023-02-04T09:08:55.859Z,1029.5
2023-02-04T09:09:58.905Z,1029.5
2023-02-04T09:11:02.103Z,1029.5
2023-02-04T09:12:06.378Z,1029.5
2023-02-04T09:13:09.451Z,1029.5
2023-02-04T09:14:12.724Z,1029.5
2023-02-04T09:15:15.431Z,1029.6
2023-02-04T09:16:18.043Z,1029.5
2023-02-04T09:17:21.538Z,1029.6
2023-02-04T09:18:24.338Z,1029.6
2023-02-04T09:19:27.146Z,1029.6
2023-02-04T09:20:31.242Z,1029.6
2023-02-04T09:21:36.680Z,1029.6
2023-02-04T09:22:40.022Z,1029.6
2023-02-04T09:23:43.176Z,1029.6
2023-02-04T09:24:45.902Z,1029.5
2023-02-04T09:25:49.274Z,1029.6
2023-02-04T09:26:52.983Z,1029.6
2023-02-04T09:27:56.904Z,1029.6
2023-02-04T09:29:00.267Z,1029.6
2023-02-04T09:30:04.014Z,1029.6
2023-02-04T09:31:06.994Z,1029.6
2023-02-04T09:32:10.221Z,1029.7
2023-02-04T09:33:13.423Z,1029.7
2023-02-04T09:34:16.244Z,1029.7
2023-02-04T09:35:19.218Z,1029.7
2023-02-04T09:36:22.542Z,1029.7
2023-02-04T09:37:25.644Z,1029.7
2023-02-04T09:38:28.709Z,1029.8
2023-02-04T09:39:32.615Z,1029.7
2023-02-04T09:40:36.019Z,1029.8
2023-02-04T09:41:40.249Z,1029.7
2023-02-04T09:42:43.140Z,1029.8
2023-02-04T09:43:47.322Z,1029.8
2023-02-04T09:44:50.680Z,1029.8
2023-02-04T09:45:54.212Z,1029.7
2023-02-04T09:46:58.498Z,1029.8
2023-02-04T09:48:01.872Z,1029.8
2023-02-04T09:49:04.873Z,1029.8
2023-02-04T09:50:08.226Z,1029.9
2023-02-04T09:51:11.367Z,1029.8
2023-02-04T09:52:14.062Z,1029.8
2023-02-04T09:53:17.760Z,1029.8
2023-02-04T09:54:20.826Z,1029.8
2023-02-04T09:55:24.074Z,1029.9
2023-02-04T09:56:27.347Z,1029.8
2023-02-04T09:57:30.511Z,1029.8
2023-02-04T09:58:33.961Z,1029.9
2023-02-04T09:59:38.116Z,1029.9
2023-02-04T10:00:41.002Z,1029.8
2023-02-04T10:01:44.661Z,1029.8
2023-02-04T10:02:47.476Z,1029.8
2023-02-04T10:03:51.419Z,1029.8
2023-02-04T10:04:54.790Z,1029.8
2023-02-04T10:05:57.923Z,1029.8
2023-02-04T10:07:01.508Z,1029.8
2023-02-04T10:08:04.560Z,1029.8
2023-02-04T10:09:07.695Z,1029.9
2023-02-04T10:10:10.865Z,1029.8
2023-02-04T10:11:13.659Z,1029.8
2023-02-04T10:12:17.322Z,1029.8
2023-02-04T10:13:20.375Z,1029.7
2023-02-04T10:14:23.250Z,1029.7
2023-02-04T10:15:27.456Z,1029.7
2023-02-04T10:16:30.890Z,1029.7
2023-02-04T10:17:34.881Z,1029.7
2023-02-04T10:18:37.676Z,1029.7
2023-02-04T10:19:41.063Z,1029.7
2023-02-04T10:20:44.122Z,1029.7
2023-02-04T10:21:47.242Z,1029.7
2023-02-04T10:22:50.943Z,1029.7
2023-02-04T10:23:54.402Z,1029.7
2023-02-04T10:24:57.484Z,1029.7
2023-02-04T10:26:00.941Z,1029.7
2023-02-04T10:27:04.307Z,1029.7
2023-02-04T10:28:06.865Z,1029.7
2023-02-04T10:29:10.502Z,1029.7
2023-02-04T10:30:13.932Z,1029.7
2023-02-04T10:31:18.376Z,1029.7
2023-02-04T10:32:22.234Z,1029.7
2023-02-04T10:33:25.779Z,1029.7
2023-02-04T10:34:29.688Z,1029.7
2023-02-04T10:35:32.745Z,1029.7
2023-02-04T10:36:35.531Z,1029.7
2023-02-04T10:37:38.908Z,1029.7
2023-02-04T10:38:42.230Z,1029.8
2023-02-04T10:39:45.297Z,1029.8
2023-02-04T10:40:49.028Z,1029.8
2023-02-04T10:41:51.605Z,1029.7
2023-02-04T10:42:54.756Z,1029.8
2023-02-04T10:43:57.827Z,1029.8
2023-02-04T10:45:01.414Z,1029.8
2023-02-04T10:46:04.754Z,1029.8
2023-02-04T10:47:09.116Z,1029.7
2023-02-04T10:48:12.122Z,1029.7
2023-02-04T10:49:14.548Z,1029.7
2023-02-04T10:50:18.360Z,1029.7
2023-02-04T10:51:21.775Z,1029.7
2023-02-04T10:52:24.756Z,1029.7
2023-02-04T10:53:28.527Z,1029.8
2023-02-04T10:54:32.353Z,1029.8
2023-02-04T10:55:36.400Z,1029.8
2023-02-04T10:56:39.922Z,1029.8
2023-02-04T10:57:44.595Z,1029.8
2023-02-04T10:58:47.798Z,1029.8
2023-02-04T10:59:51.624Z,1029.8
2023-02-04T11:00:55.296Z,1029.9
2023-02-04T11:01:59.422Z,1029.9
2023-02-04T11:03:04.237Z,1029.9
2023-02-04T11:04:07.998Z,1029.9
2023-02-04T11:05:11.316Z,1029.9
2023-02-04T11:06:15.138Z,1029.9
2023-02-04T11:07:18.371Z,1029.9
2023-02-04T11:08:22.558Z,1029.9
2023-02-04T11:09:26.260Z,1029.9
2023-02-04T11:10:30.836Z,1029.9
2023-02-04T11:11:37.164Z,1029.9
2023-02-04T11:12:40.977Z,1029.9
2023-02-04T11:13:44.871Z,1029.9
2023-02-04T11:14:49.128Z,1029.9
2023-02-04T11:15:52.773Z,1029.9
2023-02-04T11:16:57.242Z,1030
2023-02-04T11:18:00.755Z,1030
2023-02-04T11:19:05.453Z,1030
2023-02-04T11:20:09.333Z,1030
2023-02-04T11:21:12.982Z,1030
2023-02-04T11:22:17.084Z,1030
2023-02-04T11:23:21.084Z,1030
2023-02-04T11:24:25.114Z,1030
2023-02-04T11:25:28.298Z,1030
2023-02-04T11:26:33.063Z,1030
2023-02-04T11:27:36.454Z,1030.1
2023-02-04T11:28:40.572Z,1030
2023-02-04T11:29:43.865Z,1030
2023-02-04T11:30:47.564Z,1030
2023-02-04T11:31:52.112Z,1029.9
2023-02-04T11:32:56.482Z,1029.9
2023-02-04T11:34:00.593Z,1029.9
2023-02-04T11:35:04.995Z,1029.9
2023-02-04T11:36:08.826Z,1029.8
2023-02-04T11:37:12.699Z,1029.9
2023-02-04T11:38:16.108Z,1029.9
2023-02-04T11:39:19.540Z,1029.9
2023-02-04T11:40:24.020Z,1029.8
2023-02-04T11:41:27.740Z,1029.9
2023-02-04T11:42:31.110Z,1029.9
2023-02-04T11:43:35.512Z,1029.9
2023-02-04T11:44:38.965Z,1029.9
2023-02-04T11:45:43.515Z,1029.9
2023-02-04T11:46:46.996Z,1029.9
2023-02-04T11:47:50.304Z,1029.9
2023-02-04T11:48:53.831Z,1029.9
2023-02-04T11:49:57.850Z,1030
2023-02-04T11:51:01.970Z,1030
2023-02-04T11:52:05.492Z,1029.9
2023-02-04T11:53:08.993Z,1030
2023-02-04T11:54:12.793Z,1030
2023-02-04T11:55:16.878Z,1030
2023-02-04T11:56:21.121Z,1030.1
2023-02-04T11:57:24.262Z,1030
2023-02-04T11:58:27.627Z,1030
2023-02-04T11:59:31.343Z,1030
2023-02-04T12:00:34.390Z,1030
2023-02-04T12:01:37.915Z,1030
2023-02-04T12:02:41.368Z,1030
2023-02-04T12:03:44.868Z,1029.9
2023-02-04T12:04:48.791Z,1029.9
2023-02-04T12:05:52.272Z,1029.9
2023-02-04T12:06:56.345Z,1029.9
2023-02-04T12:07:59.583Z,1029.9
2023-02-04T12:09:02.664Z,1029.9
2023-02-04T12:10:06.675Z,1029.9
2023-02-04T12:11:09.736Z,1029.9
2023-02-04T12:12:13.789Z,1030
2023-02-04T12:13:16.855Z,1029.9
2023-02-04T12:14:19.903Z,1030
2023-02-04T12:15:23.187Z,1029.9
2023-02-04T12:16:26.854Z,1030
2023-02-04T12:17:30.904Z,1030
2023-02-04T12:18:34.117Z,1030
2023-02-04T12:19:37.835Z,1030
2023-02-04T12:20:40.897Z,1030
2023-02-04T12:21:44.567Z,1030
2023-02-04T12:22:48.744Z,1030
2023-02-04T12:23:52.161Z,1030
2023-02-04T12:24:54.681Z,1030.1
2023-02-04T12:25:58.264Z,1030.1
2023-02-04T12:27:01.066Z,1030.1
2023-02-04T12:28:04.318Z,1030.1
2023-02-04T12:29:08.383Z,1030.1
2023-02-04T12:30:12.123Z,1030.1
2023-02-04T12:31:15.944Z,1030.1
2023-02-04T12:32:19.936Z,1030.1
2023-02-04T12:33:23.380Z,1030.1
2023-02-04T12:34:26.398Z,1030.2
2023-02-04T12:35:29.444Z,1030.2
2023-02-04T12:36:34.311Z,1030.2
2023-02-04T12:37:36.892Z,1030.2
2023-02-04T12:38:41.093Z,1030.2
2023-02-04T12:39:44.806Z,1030.2
2023-02-04T12:40:47.036Z,1030.2
2023-02-04T12:41:50.108Z,1030.2
2023-02-04T12:42:52.609Z,1030.2
2023-02-04T12:43:55.324Z,1030.2
2023-02-04T12:44:58.146Z,1030.2
2023-02-04T12:46:00.874Z,1030.2
2023-02-04T12:47:04.237Z,1030.2
2023-02-04T12:48:07.727Z,1030.3
2023-02-04T12:49:11.133Z,1030.3
2023-02-04T12:50:14.138Z,1030.3
2023-02-04T12:51:17.169Z,1030.3
2023-02-04T12:52:20.516Z,1030.3
2023-02-04T12:53:23.402Z,1030.3
2023-02-04T12:54:27.537Z,1030.3
2023-02-04T12:55:31.988Z,1030.3
2023-02-04T12:56:37.352Z,1030.3
2023-02-04T12:57:40.144Z,1030.3
2023-02-04T12:58:42.932Z,1030.3
2023-02-04T12:59:46.308Z,1030.3
2023-02-04T13:00:49.448Z,1030.4
2023-02-04T13:01:52.879Z,1030.4
2023-02-04T13:02:56.236Z,1030.4
2023-02-04T13:03:59.316Z,1030.4
2023-02-04T13:05:02.670Z,1030.4
2023-02-04T13:06:20.405Z,1030.4
2023-02-04T13:07:24.064Z,1030.4
2023-02-04T13:08:27.171Z,1030.4
2023-02-04T13:09:31.262Z,1030.4
2023-02-04T13:10:34.148Z,1030.4
2023-02-04T13:11:37.248Z,1030.4
2023-02-04T13:12:40.300Z,1030.4
2023-02-04T13:13:43.673Z,1030.5
2023-02-04T13:14:46.720Z,1030.4
2023-02-04T13:15:49.701Z,1030.4